Time;durP1;ratioP1;P1;durP2;ratioP2;P2;SDS_P1;SDS_P2;PMS_P1;PMS_P2;Temp;Humidity;BMP_temperature;BMP_pressure;BME280_temperature;BME280_humidity;BME280_pressure;Samples;Min_cycle;Max_cycle;Signal;HPM_P1;HPM_P2
2023/05/25 00:01:15;;;;;;;3.03;1.67;;;21.00;1.00;;;;;;5015956;28;20037;-49
2023/05/25 00:03:42;;;;;;;4.38;1.42;;;21.00;1.00;;;;;;5018698;28;20033;-49
2023/05/25 00:06:09;;;;;;;3.13;1.67;;;21.00;1.00;;;;;;5016229;28;20080;-50
2023/05/25 00:08:39;;;;;;;3.83;1.20;;;21.00;1.00;;;;;;5012349;28;20038;-49
2023/05/25 00:11:06;;;;;;;5.10;1.52;;;21.00;1.00;;;;;;5012350;28;20037;-50
2023/05/25 00:13:33;;;;;;;4.82;1.80;;;21.00;1.00;;;;;;5011231;28;20500;-49
2023/05/25 00:15:59;;;;;;;3.63;1.70;;;21.00;1.00;;;;;;5012574;28;20034;-48
2023/05/25 00:18:26;;;;;;;3.92;1.60;;;21.00;1.00;;;;;;5012293;28;20108;-48
2023/05/25 00:20:53;;;;;;;4.65;1.60;;;21.00;1.00;;;;;;5004141;28;20077;-50
2023/05/25 00:23:20;;;;;;;3.17;1.55;;;21.00;1.00;;;;;;5012331;28;20048;-48
2023/05/25 00:25:46;;;;;;;1.80;1.08;;;21.00;1.00;;;;;;5011988;28;20042;-48
2023/05/25 00:28:13;;;;;;;6.95;1.67;;;21.00;1.00;;;;;;5012031;28;20041;-49
2023/05/25 00:30:40;;;;;;;2.63;1.63;;;21.00;1.00;;;;;;5012465;28;20042;-48
2023/05/25 00:33:09;;;;;;;3.30;1.25;;;21.00;1.00;;;;;;5012158;28;20038;-49
2023/05/25 00:35:36;;;;;;;3.92;2.33;;;21.00;1.00;;;;;;5012131;28;20077;-48
2023/05/25 00:38:03;;;;;;;4.72;1.83;;;21.00;1.00;;;;;;5012233;28;20467;-49
2023/05/25 00:40:30;;;;;;;2.35;1.33;;;20.90;1.00;;;;;;4994219;28;20054;-48
2023/05/25 00:42:58;;;;;;;3.33;1.65;;;21.00;1.00;;;;;;4994506;28;20050;-48
2023/05/25 00:45:25;;;;;;;4.90;1.25;;;21.00;1.00;;;;;;5011990;28;20044;-48
2023/05/25 00:47:52;;;;;;;4.03;1.90;;;21.00;1.00;;;;;;5011711;28;20042;-48
2023/05/25 00:50:33;;;;;;;2.83;1.55;;;20.90;1.00;;;;;;5012207;28;20141;-48
2023/05/25 00:53:00;;;;;;;5.05;1.80;;;20.90;1.00;;;;;;5012035;28;20066;-49
2023/05/25 00:55:32;;;;;;;2.60;1.35;;;20.90;1.00;;;;;;4994265;28;20050;-48
2023/05/25 00:58:01;;;;;;;4.72;1.90;;;20.90;1.00;;;;;;5011955;28;20545;-48
2023/05/25 01:00:29;;;;;;;2.42;1.20;;;20.90;1.00;;;;;;4994305;28;20084;-49
2023/05/25 01:02:58;;;;;;;7.32;3.15;;;20.90;1.00;;;;;;5012060;28;20062;-51
2023/05/25 01:05:29;;;;;;;3.05;1.35;;;20.90;1.00;;;;;;5008295;28;20509;-49
2023/05/25 01:08:00;;;;;;;3.72;1.23;;;20.90;1.00;;;;;;4974741;28;20129;-48
2023/05/25 01:10:31;;;;;;;5.63;1.75;;;20.90;1.00;;;;;;4974713;28;20043;-50
2023/05/25 01:13:00;;;;;;;4.13;1.20;;;20.90;1.00;;;;;;4974577;28;20540;-48
2023/05/25 01:15:29;;;;;;;2.30;1.23;;;20.90;1.00;;;;;;4992039;28;20105;-49
2023/05/25 01:17:58;;;;;;;4.07;1.55;;;20.90;1.00;;;;;;4988150;28;20065;-49
2023/05/25 01:20:29;;;;;;;3.08;1.42;;;20.90;1.00;;;;;;5011914;28;20041;-50
2023/05/25 01:23:10;;;;;;;2.85;1.13;;;20.90;1.00;;;;;;4993914;28;20057;-49
2023/05/25 01:25:46;;;;;;;6.70;1.63;;;20.90;1.00;;;;;;4997795;28;20060;-49
2023/05/25 01:28:24;;;;;;;2.50;1.42;;;20.90;1.00;;;;;;4997409;28;20096;-48
2023/05/25 01:30:52;;;;;;;3.65;1.75;;;20.90;1.00;;;;;;4997792;28;20042;-48
2023/05/25 01:33:19;;;;;;;4.13;2.08;;;20.90;1.00;;;;;;4997335;28;20117;-48
2023/05/25 01:35:47;;;;;;;4.85;1.70;;;20.80;1.00;;;;;;4997380;28;20065;-48
2023/05/25 01:38:14;;;;;;;5.40;1.58;;;20.80;1.00;;;;;;5015071;28;20083;-48
2023/05/25 01:40:41;;;;;;;4.80;1.30;;;20.90;1.00;;;;;;5007567;28;20070;-48
2023/05/25 01:43:08;;;;;;;3.63;1.33;;;20.80;1.00;;;;;;4997413;28;20049;-48
2023/05/25 01:45:35;;;;;;;3.15;1.67;;;20.80;1.00;;;;;;5014699;28;20050;-50
2023/05/25 01:48:17;;;;;;;2.88;1.63;;;20.80;1.00;;;;;;5014624;28;20033;-48
2023/05/25 01:50:58;;;;;;;5.07;1.50;;;20.80;1.00;;;;;;5015120;28;20088;-48
2023/05/25 01:53:38;;;;;;;6.57;2.28;;;20.80;1.00;;;;;;4996921;28;20704;-48
2023/05/25 01:56:10;;;;;;;3.53;1.38;;;20.80;1.00;;;;;;4997105;28;20400;-48
2023/05/25 01:58:45;;;;;;;4.65;2.25;;;20.80;1.00;;;;;;5014672;28;20539;-48
2023/05/25 02:01:14;;;;;;;6.30;1.90;;;20.80;1.00;;;;;;4997249;28;20069;-48
2023/05/25 02:03:41;;;;;;;4.13;1.38;;;20.80;1.00;;;;;;4998312;28;20394;-50
2023/05/25 02:06:08;;;;;;;5.13;1.67;;;20.80;1.00;;;;;;4986549;28;20042;-50
2023/05/25 02:08:35;;;;;;;3.30;1.42;;;20.80;1.00;;;;;;4994707;28;20042;-48
2023/05/25 02:11:02;;;;;;;5.82;2.17;;;20.80;1.00;;;;;;4995082;28;20482;-48
2023/05/25 02:13:29;;;;;;;3.38;1.33;;;20.80;1.00;;;;;;4976981;28;20038;-48
2023/05/25 02:15:56;;;;;;;3.70;2.05;;;20.80;1.00;;;;;;4977345;28;20048;-50
2023/05/25 02:18:23;;;;;;;3.60;1.75;;;20.70;1.00;;;;;;4977025;28;20054;-48
2023/05/25 02:20:53;;;;;;;3.67;1.75;;;20.80;1.00;;;;;;4994798;28;20328;-48
2023/05/25 02:23:19;;;;;;;4.22;1.40;;;20.80;1.00;;;;;;4976851;28;20050;-49
2023/05/25 02:25:46;;;;;;;7.53;1.77;;;20.80;1.00;;;;;;4994585;28;20497;-48
2023/05/25 02:28:14;;;;;;;4.15;2.08;;;20.80;1.00;;;;;;4976907;28;20046;-49
2023/05/25 02:30:41;;;;;;;4.10;1.40;;;20.70;1.00;;;;;;4977015;28;20046;-48
2023/05/25 02:33:08;;;;;;;4.65;1.83;;;20.70;1.00;;;;;;4977117;28;20101;-48
2023/05/25 02:35:34;;;;;;;2.95;1.45;;;20.70;1.00;;;;;;4993276;28;20080;-47
2023/05/25 02:38:01;;;;;;;2.22;1.27;;;20.70;1.00;;;;;;4976822;28;20043;-47
2023/05/25 02:40:28;;;;;;;3.15;1.67;;;20.70;1.00;;;;;;4976747;28;20054;-47
2023/05/25 02:42:55;;;;;;;4.05;1.75;;;20.70;1.00;;;;;;4977081;28;20068;-47
2023/05/25 02:45:22;;;;;;;5.95;1.80;;;20.70;1.00;;;;;;4994066;28;20040;-48
2023/05/25 02:47:49;;;;;;;4.53;1.95;;;20.70;1.00;;;;;;4997927;28;20060;-48
2023/05/25 02:50:16;;;;;;;4.47;1.75;;;20.70;1.00;;;;;;4996134;28;20045;-48
2023/05/25 02:52:46;;;;;;;2.78;1.65;;;20.70;1.00;;;;;;4996094;28;20042;-48
2023/05/25 02:55:13;;;;;;;4.47;1.58;;;20.70;1.00;;;;;;4996006;28;20073;-48
2023/05/25 02:57:41;;;;;;;2.50;1.63;;;20.70;1.00;;;;;;4992926;28;20089;-47
2023/05/25 03:00:11;;;;;;;3.90;1.40;;;20.60;1.00;;;;;;4977183;28;20470;-50
2023/05/25 03:02:38;;;;;;;3.95;1.40;;;20.60;1.00;;;;;;4996284;28;20402;-48
2023/05/25 03:05:06;;;;;;;3.83;1.63;;;20.60;1.00;;;;;;5007153;28;20524;-48
2023/05/25 03:07:34;;;;;;;4.35;1.83;;;20.60;1.00;;;;;;4992881;28;20076;-48
2023/05/25 03:10:01;;;;;;;4.82;1.60;;;20.60;1.00;;;;;;4989781;28;20069;-48
2023/05/25 03:12:28;;;;;;;4.45;1.73;;;20.60;1.00;;;;;;5021429;28;20095;-48
2023/05/25 03:14:55;;;;;;;2.90;1.88;;;20.60;1.00;;;;;;4995391;28;20497;-48
2023/05/25 03:17:22;;;;;;;3.47;1.30;;;20.60;1.00;;;;;;4995307;28;20046;-47
2023/05/25 03:19:49;;;;;;;3.83;1.35;;;20.60;1.00;;;;;;5013362;28;20034;-48
2023/05/25 03:22:15;;;;;;;4.75;1.77;;;20.60;1.00;;;;;;4995510;28;20449;-48
2023/05/25 03:24:45;;;;;;;5.05;1.38;;;20.60;1.00;;;;;;4995260;28;20050;-48
2023/05/25 03:27:12;;;;;;;5.45;1.65;;;20.60;1.00;;;;;;4995274;28;20053;-48
2023/05/25 03:29:39;;;;;;;3.38;1.90;;;20.60;1.00;;;;;;4995068;28;20042;-47
2023/05/25 03:32:08;;;;;;;4.32;1.65;;;20.60;1.00;;;;;;4994813;28;20049;-47
2023/05/25 03:34:36;;;;;;;6.22;1.38;;;20.60;1.00;;;;;;4983830;28;20417;-48
2023/05/25 03:37:04;;;;;;;3.45;1.60;;;20.60;1.00;;;;;;4991781;28;20094;-50
2023/05/25 03:39:31;;;;;;;3.65;1.25;;;20.50;1.00;;;;;;4974949;28;20050;-48
2023/05/25 03:41:58;;;;;;;4.15;1.45;;;20.50;1.00;;;;;;4975671;28;20070;-51
2023/05/25 03:44:25;;;;;;;4.20;1.42;;;20.50;1.00;;;;;;4975638;28;20054;-48
2023/05/25 03:46:52;;;;;;;3.13;1.90;;;20.50;1.00;;;;;;4974649;28;20034;-48
2023/05/25 03:49:19;;;;;;;4.15;1.10;;;20.50;1.00;;;;;;4975405;28;20570;-50
2023/05/25 03:51:46;;;;;;;3.15;1.27;;;20.50;1.00;;;;;;4975386;28;20050;-48
2023/05/25 03:54:13;;;;;;;5.32;1.73;;;20.50;1.00;;;;;;4975522;28;20069;-48
2023/05/25 03:56:39;;;;;;;3.33;1.80;;;20.50;1.00;;;;;;4975503;28;20070;-48
2023/05/25 03:59:06;;;;;;;2.95;2.05;;;20.50;1.00;;;;;;4975355;28;20034;-48
2023/05/25 04:01:36;;;;;;;6.18;1.60;;;20.50;1.00;;;;;;4975375;28;20046;-47
2023/05/25 04:04:05;;;;;;;3.30;1.65;;;20.50;1.00;;;;;;4990720;28;20102;-47
2023/05/25 04:06:32;;;;;;;2.33;0.88;;;20.50;1.00;;;;;;4994629;28;20073;-48
2023/05/25 04:09:00;;;;;;;7.05;2.25;;;20.50;1.00;;;;;;4989429;28;20045;-48
2023/05/25 04:11:27;;;;;;;3.75;1.60;;;20.50;1.00;;;;;;5012635;28;20044;-50
2023/05/25 04:13:54;;;;;;;4.03;1.40;;;20.50;1.00;;;;;;4999627;28;20073;-48
2023/05/25 04:16:25;;;;;;;3.22;1.42;;;20.50;1.00;;;;;;4994401;28;20052;-48
2023/05/25 04:18:53;;;;;;;7.93;1.25;;;20.50;1.00;;;;;;4994447;28;20095;-48
2023/05/25 04:21:20;;;;;;;3.33;1.63;;;20.50;1.00;;;;;;4994777;28;20053;-48
2023/05/25 04:23:47;;;;;;;8.13;1.88;;;20.50;1.00;;;;;;4994302;28;20061;-48
2023/05/25 04:26:17;;;;;;;9.55;1.98;;;20.40;1.00;;;;;;4994697;28;20521;-48
2023/05/25 04:28:45;;;;;;;13.63;4.20;;;20.40;1.00;;;;;;4999117;28;20045;-48
2023/05/25 04:31:25;;;;;;;6.40;2.47;;;20.40;1.00;;;;;;4989755;28;20057;-49
2023/05/25 04:34:20;;;;;;;;;;;20.40;1.00;;;;;;4995221;28;20054;-48
2023/05/25 04:37:04;;;;;;;6.43;1.90;;;20.40;1.00;;;;;;5010536;28;19927;-48
2023/05/25 04:39:31;;;;;;;4.85;1.67;;;20.30;1.00;;;;;;4994244;28;20050;-48
2023/05/25 04:42:03;;;;;;;9.00;2.25;;;20.30;1.00;;;;;;4994173;28;20052;-48
2023/05/25 04:44:31;;;;;;;5.32;2.33;;;20.30;1.00;;;;;;4994475;28;20104;-47
2023/05/25 04:47:00;;;;;;;5.10;1.80;;;20.30;1.00;;;;;;4994387;28;20042;-50
2023/05/25 04:49:32;;;;;;;3.47;1.73;;;20.40;1.00;;;;;;4993948;28;20501;-49
2023/05/25 04:51:59;;;;;;;3.42;1.77;;;20.30;1.00;;;;;;5012083;28;20042;-48
2023/05/25 04:54:28;;;;;;;6.05;1.80;;;20.30;1.00;;;;;;4994135;28;20041;-48
2023/05/25 04:56:58;;;;;;;3.97;1.80;;;20.30;1.00;;;;;;4994360;28;20074;-49
2023/05/25 04:59:25;;;;;;;6.50;1.40;;;20.30;1.00;;;;;;4996855;28;20049;-49
2023/05/25 05:01:51;;;;;;;5.07;2.38;;;20.30;1.00;;;;;;4997929;28;20442;-49
2023/05/25 05:04:18;;;;;;;16.35;2.40;;;20.30;1.00;;;;;;5018516;28;20042;-48
2023/05/25 05:06:46;;;;;;;7.43;2.40;;;20.30;1.00;;;;;;4996752;28;20042;-48
2023/05/25 05:09:21;;;;;;;4.50;2.10;;;20.20;1.00;;;;;;4997764;28;20140;-47
2023/05/25 05:11:48;;;;;;;4.65;2.10;;;20.20;1.00;;;;;;4997855;28;20132;-48
2023/05/25 05:14:17;;;;;;;5.40;1.83;;;20.20;1.00;;;;;;4997911;28;20137;-48
2023/05/25 05:16:46;;;;;;;9.48;2.65;;;20.20;1.00;;;;;;4997501;28;20046;-47
2023/05/25 05:19:13;;;;;;;3.47;1.58;;;20.20;1.00;;;;;;4997627;28;20045;-48
2023/05/25 05:21:41;;;;;;;7.28;2.13;;;20.20;1.00;;;;;;4997514;28;20581;-48
2023/05/25 05:24:08;;;;;;;6.78;1.85;;;20.20;1.00;;;;;;4997686;28;20034;-48
2023/05/25 05:26:35;;;;;;;9.25;2.00;;;20.20;1.00;;;;;;4997372;28;20076;-49
2023/05/25 05:29:25;;;;;;;3.67;2.03;;;20.20;1.00;;;;;;4997419;28;20125;-47
2023/05/25 05:31:54;;;;;;;4.10;1.90;;;20.20;1.00;;;;;;4997269;28;20038;-47
2023/05/25 05:34:21;;;;;;;7.30;2.33;;;20.20;1.00;;;;;;4997607;28;20497;-48
2023/05/25 05:36:49;;;;;;;5.40;2.38;;;20.20;1.00;;;;;;4997315;28;20164;-48
2023/05/25 05:39:26;;;;;;;3.28;2.03;;;20.20;1.00;;;;;;4997458;28;20096;-48
2023/05/25 05:41:54;;;;;;;5.47;2.15;;;20.20;1.00;;;;;;4997378;28;20092;-49
2023/05/25 05:44:21;;;;;;;6.38;1.67;;;20.20;1.00;;;;;;4997155;28;20524;-48
2023/05/25 05:46:58;;;;;;;5.90;1.92;;;20.20;1.00;;;;;;4997190;28;20076;-48
2023/05/25 05:49:30;;;;;;;4.82;2.08;;;20.20;1.00;;;;;;4997269;28;20124;-48
2023/05/25 05:51:59;;;;;;;4.32;1.70;;;20.20;1.00;;;;;;4997201;28;20502;-48
2023/05/25 05:54:26;;;;;;;6.82;1.85;;;20.20;1.00;;;;;;4997000;28;20112;-48
2023/05/25 05:56:55;;;;;;;3.28;1.80;;;20.20;1.00;;;;;;4996911;28;20100;-48
2023/05/25 05:59:22;;;;;;;8.57;2.17;;;20.20;1.00;;;;;;4997043;28;20054;-49
2023/05/25 06:01:48;;;;;;;3.15;1.58;;;20.20;1.00;;;;;;5006557;28;20096;-48
2023/05/25 06:04:15;;;;;;;7.93;2.17;;;20.20;1.00;;;;;;4991333;28;20046;-48
2023/05/25 06:06:44;;;;;;;4.70;1.80;;;20.20;1.00;;;;;;4977644;28;20413;-49
2023/05/25 06:09:11;;;;;;;3.58;1.60;;;20.20;1.00;;;;;;4977279;28;20522;-51
2023/05/25 06:11:38;;;;;;;2.75;1.60;;;20.20;1.00;;;;;;4977041;28;20039;-48
2023/05/25 06:14:06;;;;;;;5.32;1.90;;;20.20;1.00;;;;;;4977211;28;20505;-49
2023/05/25 06:16:35;;;;;;;3.33;1.77;;;20.20;1.00;;;;;;4977174;28;20101;-47
2023/05/25 06:19:02;;;;;;;4.25;1.48;;;20.20;1.00;;;;;;4977133;28;20042;-50
2023/05/25 06:21:29;;;;;;;3.08;1.63;;;20.20;1.00;;;;;;4977043;28;20137;-48
2023/05/25 06:23:56;;;;;;;4.55;1.48;;;20.20;1.00;;;;;;4977170;28;20093;-49
2023/05/25 06:26:23;;;;;;;6.30;2.30;;;20.20;1.00;;;;;;4992106;28;20133;-49
2023/05/25 06:28:51;;;;;;;3.25;1.38;;;20.20;1.00;;;;;;4996220;28;20080;-48
2023/05/25 06:31:18;;;;;;;8.63;2.20;;;20.20;1.00;;;;;;4996361;28;20065;-48
2023/05/25 06:33:44;;;;;;;4.57;1.85;;;20.20;1.00;;;;;;4996303;28;20069;-49
2023/05/25 06:36:13;;;;;;;4.25;1.90;;;20.20;1.00;;;;;;4996233;28;20092;-48
2023/05/25 06:38:42;;;;;;;3.25;2.08;;;20.20;1.00;;;;;;4995973;28;20136;-49
2023/05/25 06:41:13;;;;;;;4.25;1.35;;;20.20;1.00;;;;;;4996272;28;20080;-48
2023/05/25 06:43:41;;;;;;;4.57;1.45;;;20.20;1.00;;;;;;4996335;28;20064;-47
2023/05/25 06:46:16;;;;;;;4.43;1.42;;;20.20;1.00;;;;;;4996212;28;20042;-48
2023/05/25 06:48:44;;;;;;;4.18;2.05;;;20.20;1.00;;;;;;5003984;28;20038;-48
2023/05/25 06:51:12;;;;;;;3.50;2.13;;;20.20;1.00;;;;;;4994108;28;20057;-49
2023/05/25 06:53:38;;;;;;;1.98;1.35;;;20.20;1.00;;;;;;4994062;28;20069;-48
2023/05/25 06:56:05;;;;;;;3.03;1.60;;;20.20;1.00;;;;;;4993919;28;20122;-49
2023/05/25 06:58:32;;;;;;;2.75;1.63;;;20.20;1.00;;;;;;4994008;28;20042;-48
2023/05/25 07:00:59;;;;;;;2.70;1.50;;;20.20;1.00;;;;;;5005406;28;20072;-48
2023/05/25 07:03:26;;;;;;;4.28;2.05;;;20.20;1.00;;;;;;5013396;28;20093;-48
2023/05/25 07:05:53;;;;;;;3.65;1.50;;;20.20;1.00;;;;;;4995090;28;20042;-48
2023/05/25 07:08:20;;;;;;;4.82;1.48;;;20.20;1.00;;;;;;4993759;28;20042;-47
2023/05/25 07:10:47;;;;;;;2.80;1.58;;;20.20;1.00;;;;;;4993742;28;20490;-49
2023/05/25 07:13:16;;;;;;;3.05;1.35;;;20.20;1.00;;;;;;4993612;28;20038;-47
2023/05/25 07:15:43;;;;;;;2.35;1.20;;;20.20;1.00;;;;;;4993481;28;20048;-47
2023/05/25 07:18:11;;;;;;;3.13;1.60;;;20.20;1.00;;;;;;4993377;28;20401;-48
2023/05/25 07:20:40;;;;;;;2.13;1.33;;;20.20;1.00;;;;;;4976012;28;20066;-50
2023/05/25 07:23:09;;;;;;;3.63;2.08;;;20.20;1.00;;;;;;4993244;28;20042;-50
2023/05/25 07:25:37;;;;;;;4.63;2.20;;;20.20;1.00;;;;;;4993228;28;20066;-49
2023/05/25 07:28:04;;;;;;;3.13;1.52;;;20.20;1.00;;;;;;4993251;28;20054;-50
2023/05/25 07:30:31;;;;;;;5.22;1.48;;;20.20;1.00;;;;;;4993595;28;20043;-48
2023/05/25 07:32:59;;;;;;;4.60;1.73;;;20.20;1.00;;;;;;4993068;28;20053;-48
2023/05/25 07:35:26;;;;;;;6.50;1.75;;;20.20;1.00;;;;;;4993279;28;20486;-47
2023/05/25 07:38:00;;;;;;;3.33;1.48;;;20.20;1.00;;;;;;4993282;28;20158;-48
2023/05/25 07:40:27;;;;;;;4.13;1.80;;;20.20;1.00;;;;;;4999570;28;20044;-48
2023/05/25 07:43:01;;;;;;;2.85;1.73;;;20.20;1.00;;;;;;5010713;28;20049;-52
2023/05/25 07:45:28;;;;;;;4.13;1.52;;;20.20;1.00;;;;;;5012671;28;20477;-48
2023/05/25 07:47:55;;;;;;;3.33;1.95;;;20.20;1.00;;;;;;5012501;28;20120;-48
2023/05/25 07:50:22;;;;;;;4.40;1.67;;;20.20;1.00;;;;;;5012686;28;20125;-48
2023/05/25 07:52:49;;;;;;;5.70;1.90;;;20.20;1.00;;;;;;5012399;28;20042;-48
2023/05/25 07:55:18;;;;;;;3.65;1.40;;;20.30;1.00;;;;;;5012400;28;20037;-47
2023/05/25 07:57:45;;;;;;;4.45;1.65;;;20.30;1.00;;;;;;5012311;28;20568;-48
2023/05/25 08:00:13;;;;;;;4.32;1.90;;;20.30;1.00;;;;;;5012421;28;20069;-47
2023/05/25 08:02:40;;;;;;;7.43;1.52;;;20.30;1.00;;;;;;5012560;28;20496;-48
2023/05/25 08:05:08;;;;;;;3.85;1.63;;;20.30;1.00;;;;;;5002177;28;20085;-48
2023/05/25 08:07:36;;;;;;;7.03;2.40;;;20.30;1.00;;;;;;5009159;28;20556;-49
2023/05/25 08:10:07;;;;;;;5.47;1.85;;;20.30;1.00;;;;;;5012630;28;20042;-48
2023/05/25 08:12:34;;;;;;;2.38;1.38;;;20.30;1.00;;;;;;5012942;28;20049;-49
2023/05/25 08:15:15;;;;;;;3.47;1.38;;;20.30;1.00;;;;;;4988970;28;20710;-48
2023/05/25 08:17:42;;;;;;;2.28;1.50;;;20.30;1.00;;;;;;5013172;28;20041;-48
2023/05/25 08:20:10;;;;;;;3.70;1.83;;;20.30;1.00;;;;;;5013074;28;20049;-48
2023/05/25 08:22:37;;;;;;;6.00;1.73;;;20.30;1.00;;;;;;5013355;28;20100;-48
2023/05/25 08:25:05;;;;;;;3.88;2.00;;;20.30;1.00;;;;;;5012477;28;20426;-47
2023/05/25 08:27:32;;;;;;;5.93;1.58;;;20.30;1.00;;;;;;5012197;28;20065;-49
2023/05/25 08:30:04;;;;;;;5.38;1.77;;;20.30;1.00;;;;;;5012594;28;20092;-45
2023/05/25 08:32:31;;;;;;;2.58;1.45;;;20.30;1.00;;;;;;5012611;28;20563;-49
2023/05/25 08:34:58;;;;;;;5.03;1.80;;;20.30;1.00;;;;;;5015206;28;20048;-48
2023/05/25 08:37:25;;;;;;;4.13;1.58;;;20.30;1.00;;;;;;5016019;28;20042;-46
2023/05/25 08:39:52;;;;;;;4.25;2.10;;;20.30;1.00;;;;;;4998663;28;20050;-46
2023/05/25 08:42:19;;;;;;;5.28;1.77;;;20.30;1.00;;;;;;4996620;28;20042;-46
2023/05/25 08:44:45;;;;;;;3.65;1.55;;;20.30;1.00;;;;;;4996780;28;20042;-46
2023/05/25 08:47:15;;;;;;;3.22;1.52;;;20.30;1.00;;;;;;4996592;28;20057;-46
2023/05/25 08:49:44;;;;;;;5.63;1.98;;;20.30;1.00;;;;;;4996318;28;20046;-49
2023/05/25 08:52:13;;;;;;;4.20;2.00;;;20.30;1.00;;;;;;4979134;28;20482;-46
2023/05/25 08:54:44;;;;;;;3.22;1.23;;;20.30;1.00;;;;;;4996555;28;20483;-51
2023/05/25 08:57:11;;;;;;;4.05;1.70;;;20.30;1.00;;;;;;4996522;28;20546;-48
2023/05/25 09:00:09;;;;;;;2.95;1.58;;;20.30;1.00;;;;;;4996172;28;20050;-48
2023/05/25 09:02:58;;;;;;;7.72;1.67;;;20.40;1.00;;;;;;5011781;28;20382;-46
2023/05/25 09:05:26;;;;;;;5.75;1.52;;;20.40;1.00;;;;;;5017465;28;20057;-48
2023/05/25 09:07:54;;;;;;;4.55;1.83;;;20.40;1.00;;;;;;5015797;28;20052;-48
2023/05/25 09:10:23;;;;;;;4.25;1.83;;;20.40;1.00;;;;;;5015882;28;20562;-51
2023/05/25 09:12:51;;;;;;;5.72;1.63;;;20.30;1.00;;;;;;5015201;28;20038;-47
2023/05/25 09:15:18;;;;;;;5.50;1.67;;;20.40;1.00;;;;;;5015696;28;20064;-49
2023/05/25 09:17:44;;;;;;;7.05;1.77;;;20.40;1.00;;;;;;4998000;28;20038;-48
2023/05/25 09:20:12;;;;;;;2.58;1.30;;;20.40;1.00;;;;;;5015507;28;20041;-48
2023/05/25 09:22:40;;;;;;;5.85;2.05;;;20.40;1.00;;;;;;5007633;28;20050;-50
2023/05/25 09:25:09;;;;;;;5.40;1.90;;;20.40;1.00;;;;;;4996009;28;20445;-49
2023/05/25 09:27:37;;;;;;;5.43;1.70;;;20.40;1.00;;;;;;4995454;28;20054;-48
2023/05/25 09:30:05;;;;;;;3.67;1.70;;;20.40;1.00;;;;;;5006566;28;20034;-49
2023/05/25 09:32:32;;;;;;;7.25;1.85;;;20.40;1.00;;;;;;5015214;28;20038;-48
2023/05/25 09:35:13;;;;;;;7.00;2.05;;;20.40;1.00;;;;;;5013141;28;20119;-48
2023/05/25 09:37:41;;;;;;;6.22;1.25;;;20.40;1.00;;;;;;4995506;28;20489;-48
2023/05/25 09:40:11;;;;;;;5.70;1.58;;;20.50;1.00;;;;;;5006910;28;20462;-52
2023/05/25 09:42:41;;;;;;;7.15;2.15;;;20.50;1.00;;;;;;5015025;28;20440;-49
2023/05/25 09:45:08;;;;;;;7.70;2.05;;;20.50;1.00;;;;;;5014560;28;20076;-47
2023/05/25 09:47:36;;;;;;;5.20;1.98;;;20.50;1.00;;;;;;5014720;28;20124;-47
2023/05/25 09:50:04;;;;;;;4.25;1.20;;;20.50;1.00;;;;;;5014780;28;20042;-49
2023/05/25 09:52:31;;;;;;;5.20;1.67;;;20.50;1.00;;;;;;5014730;28;20045;-47
2023/05/25 09:54:58;;;;;;;5.45;2.53;;;20.50;1.00;;;;;;5014823;28;20049;-46
2023/05/25 09:57:26;;;;;;;6.93;2.00;;;20.50;1.00;;;;;;5009032;28;20046;-48
2023/05/25 09:59:53;;;;;;;8.82;2.03;;;20.50;1.00;;;;;;5012469;28;20046;-49
2023/05/25 10:02:20;;;;;;;6.75;2.10;;;20.50;1.00;;;;;;5014653;28;20508;-47
2023/05/25 10:04:47;;;;;;;8.95;1.88;;;20.50;1.00;;;;;;5008030;28;20046;-47
2023/05/25 10:07:15;;;;;;;8.05;3.50;;;20.50;1.00;;;;;;4994822;28;20490;-47
2023/05/25 10:09:45;;;;;;;6.97;1.75;;;20.50;1.00;;;;;;4994939;28;20581;-47
2023/05/25 10:12:16;;;;;;;10.13;1.75;;;20.50;1.00;;;;;;4998496;28;20125;-47
2023/05/25 10:14:44;;;;;;;5.15;2.42;;;20.60;1.00;;;;;;5014468;28;20034;-47
2023/05/25 10:17:17;;;;;;;4.60;1.70;;;20.60;1.00;;;;;;5010730;28;20042;-48
2023/05/25 10:19:56;;;;;;;7.72;1.90;;;20.60;1.00;;;;;;5010908;28;20050;-47
2023/05/25 10:22:45;;;;;;;7.88;1.48;;;20.60;1.00;;;;;;4997017;28;20046;-47
2023/05/25 10:25:12;;;;;;;8.90;2.67;;;20.60;1.00;;;;;;5014401;28;20397;-47
2023/05/25 10:27:47;;;;;;;9.07;2.10;;;20.50;1.00;;;;;;5014535;28;20440;-46
2023/05/25 10:30:15;;;;;;;8.32;2.33;;;20.60;1.00;;;;;;5014227;28;20121;-47
2023/05/25 10:32:44;;;;;;;8.40;2.63;;;20.60;1.00;;;;;;5014069;28;20041;-48
2023/05/25 10:35:12;;;;;;;10.05;2.85;;;20.60;1.00;;;;;;5013786;28;20072;-49
2023/05/25 10:37:40;;;;;;;6.28;2.15;;;20.60;1.00;;;;;;5013927;28;20445;-49
2023/05/25 10:40:08;;;;;;;3.63;1.73;;;20.60;1.00;;;;;;5013910;28;20048;-46
2023/05/25 10:42:36;;;;;;;10.52;2.67;;;20.60;1.00;;;;;;5013652;28;20828;-46
2023/05/25 10:45:07;;;;;;;8.07;1.70;;;20.60;1.00;;;;;;5013994;28;20129;-47
2023/05/25 10:47:42;;;;;;;5.95;2.83;;;20.60;1.00;;;;;;5013764;28;20126;-48
2023/05/25 10:50:33;;;;;;;7.63;2.28;;;20.60;1.00;;;;;;5013965;28;20034;-47
2023/05/25 10:53:26;;;;;;;10.35;2.08;;;20.60;1.00;;;;;;5013518;28;20413;-46
2023/05/25 10:55:53;;;;;;;7.70;2.00;;;20.60;1.00;;;;;;5011288;28;20058;-47
2023/05/25 10:58:22;;;;;;;6.60;1.88;;;20.60;1.00;;;;;;5013433;28;20120;-47
2023/05/25 11:01:05;;;;;;;7.45;2.08;;;20.60;1.00;;;;;;5013593;28;20084;-47
2023/05/25 11:03:50;;;;;;;;;;;20.60;1.00;;;;;;5014529;28;20132;-48
2023/05/25 11:06:20;;;;;;;8.95;2.53;;;20.60;1.00;;;;;;5006015;28;19925;-46
2023/05/25 11:08:48;;;;;;;8.07;1.83;;;20.60;1.00;;;;;;5013342;28;20527;-50
2023/05/25 11:11:14;;;;;;;8.13;2.28;;;20.60;1.00;;;;;;5013744;28;20113;-48
2023/05/25 11:13:49;;;;;;;3.75;1.63;;;20.60;1.00;;;;;;5013166;28;20108;-47
2023/05/25 11:16:20;;;;;;;6.93;2.55;;;20.60;1.00;;;;;;5013214;28;20041;-47
2023/05/25 11:18:56;;;;;;;10.50;2.17;;;20.60;1.00;;;;;;5013072;28;20052;-47
2023/05/25 11:21:26;;;;;;;11.32;1.95;;;20.70;1.00;;;;;;5013281;28;20112;-49
2023/05/25 11:24:09;;;;;;;16.35;2.95;;;20.70;1.00;;;;;;5013273;28;20042;-47
2023/05/25 11:26:36;;;;;;;7.32;1.50;;;20.70;1.00;;;;;;5012807;28;20560;-49
2023/05/25 11:29:14;;;;;;;10.90;3.60;;;20.70;1.00;;;;;;5012753;28;20138;-46
2023/05/25 11:31:42;;;;;;;11.93;3.58;;;20.70;1.00;;;;;;5012730;28;20409;-47
2023/05/25 11:34:10;;;;;;;9.25;2.17;;;20.70;1.00;;;;;;5012759;28;20060;-50
2023/05/25 11:36:38;;;;;;;8.70;2.13;;;20.70;1.00;;;;;;5012878;28;20445;-47
2023/05/25 11:39:05;;;;;;;8.18;2.15;;;20.70;1.00;;;;;;5013009;28;20034;-47
2023/05/25 11:42:02;;;;;;;7.63;2.20;;;20.70;1.00;;;;;;5012736;28;20117;-47
2023/05/25 11:44:35;;;;;;;8.18;1.80;;;20.70;1.00;;;;;;5012933;28;20046;-47
2023/05/25 11:47:17;;;;;;;11.73;2.92;;;20.70;1.00;;;;;;5013040;28;20069;-48
2023/05/25 11:49:46;;;;;;;9.88;2.53;;;20.70;1.00;;;;;;5012788;28;20042;-48
2023/05/25 11:52:17;;;;;;;10.57;2.53;;;20.70;1.00;;;;;;5012645;28;20040;-49
2023/05/25 11:54:45;;;;;;;7.47;2.50;;;20.70;1.00;;;;;;5012648;28;20133;-49
2023/05/25 11:57:24;;;;;;;10.80;2.75;;;20.70;1.00;;;;;;5012618;28;20034;-48
2023/05/25 11:59:53;;;;;;;11.05;2.75;;;20.70;1.00;;;;;;5012596;28;20046;-50
2023/05/25 12:02:21;;;;;;;12.77;3.35;;;20.70;1.00;;;;;;5012738;28;20042;-48
2023/05/25 12:04:54;;;;;;;10.70;2.42;;;20.70;1.00;;;;;;5008059;28;20526;-48
2023/05/25 12:07:22;;;;;;;9.35;2.67;;;20.80;1.00;;;;;;5004631;28;20084;-48
2023/05/25 12:09:49;;;;;;;11.85;2.97;;;20.80;1.00;;;;;;5012218;28;20046;-48
2023/05/25 12:12:16;;;;;;;8.93;2.45;;;20.80;1.00;;;;;;5012203;28;20042;-48
2023/05/25 12:14:48;;;;;;;9.90;2.85;;;20.80;1.00;;;;;;5012241;28;20046;-48
2023/05/25 12:17:17;;;;;;;12.45;3.85;;;20.80;1.00;;;;;;5012299;28;20044;-51
2023/05/25 12:19:44;;;;;;;7.53;2.00;;;20.80;1.00;;;;;;5012374;28;20458;-52
2023/05/25 12:22:12;;;;;;;10.68;3.05;;;20.80;1.00;;;;;;5012192;28;20049;-47
2023/05/25 12:24:39;;;;;;;10.68;2.65;;;20.80;1.00;;;;;;5012550;28;20485;-50
2023/05/25 12:27:21;;;;;;;10.63;3.60;;;20.80;1.00;;;;;;5012716;28;20046;-50
2023/05/25 12:29:48;;;;;;;11.95;2.58;;;20.80;1.00;;;;;;4995037;28;20501;-50
2023/05/25 12:32:15;;;;;;;14.65;3.30;;;20.80;1.00;;;;;;5004438;28;20109;-49
2023/05/25 12:34:42;;;;;;;9.48;3.20;;;20.80;1.00;;;;;;5012396;28;20069;-51
2023/05/25 12:37:21;;;;;;;15.10;3.25;;;20.80;1.00;;;;;;5011917;28;20065;-48
2023/05/25 12:39:49;;;;;;;15.52;4.00;;;20.80;1.00;;;;;;5012397;28;20077;-50
2023/05/25 12:42:17;;;;;;;10.75;2.72;;;20.80;1.00;;;;;;4994595;28;20092;-48
2023/05/25 12:44:45;;;;;;;10.15;3.00;;;20.80;1.00;;;;;;5012078;28;20042;-48
2023/05/25 12:47:21;;;;;;;8.95;3.25;;;20.80;1.00;;;;;;5012016;28;20501;-48
2023/05/25 12:49:52;;;;;;;10.85;3.13;;;20.80;1.00;;;;;;5011968;28;20378;-48
2023/05/25 12:52:32;;;;;;;15.13;2.88;;;20.80;1.00;;;;;;5011975;28;20113;-48
2023/05/25 12:55:20;;;;;;;12.00;3.00;;;20.80;1.00;;;;;;5011777;28;20112;-48
2023/05/25 12:57:51;;;;;;;11.43;3.42;;;20.80;1.00;;;;;;5011294;28;20050;-50
2023/05/25 13:00:20;;;;;;;13.30;2.30;;;20.80;1.00;;;;;;5011091;28;20456;-48
2023/05/25 13:02:46;;;;;;;13.20;3.05;;;20.80;1.00;;;;;;5011262;28;20053;-49
2023/05/25 13:05:42;;;;;;;14.65;2.60;;;20.80;1.00;;;;;;5003549;28;20186;-50
2023/05/25 13:08:09;;;;;;;16.42;3.53;;;20.80;1.00;;;;;;4989206;28;20058;-48